createdAt,value
2018-05-12T00:02:07.638Z,90.30
2018-05-12T00:04:39.990Z,90.30
2018-05-12T00:07:12.251Z,90.20
2018-05-12T00:09:44.647Z,90.40
2018-05-12T00:12:16.964Z,90.30
2018-05-12T00:14:49.302Z,90.30
2018-05-12T00:17:21.629Z,90.40
2018-05-12T00:19:53.924Z,90.30
2018-05-12T00:22:26.198Z,90.40
2018-05-12T00:24:58.540Z,90.40
2018-05-12T00:27:30.844Z,90.20
2018-05-12T00:30:03.478Z,90.10
2018-05-12T00:32:35.783Z,90.20
2018-05-12T00:35:08.188Z,90.30
2018-05-12T00:37:41.327Z,90.20
2018-05-12T00:40:13.723Z,90.20
2018-05-12T00:42:45.989Z,90.30
2018-05-12T00:45:18.427Z,90.20
2018-05-12T00:47:50.716Z,90.20
2018-05-12T00:50:23.098Z,90.30
2018-05-12T00:52:55.381Z,90.20
2018-05-12T00:55:27.727Z,90.30
2018-05-12T00:58:00.113Z,90.30
2018-05-12T01:00:32.385Z,90.30
2018-05-12T01:03:04.684Z,90.40
2018-05-12T01:05:37.187Z,90.40
2018-05-12T01:08:09.476Z,90.40
2018-05-12T01:10:41.961Z,90.60
2018-05-12T01:13:14.305Z,90.50
2018-05-12T01:15:46.671Z,90.60
2018-05-12T01:18:19.759Z,90.80
2018-05-12T01:20:52.912Z,90.60
2018-05-12T01:23:25.200Z,90.60
2018-05-12T01:25:57.565Z,90.80
2018-05-12T01:28:29.858Z,90.80
2018-05-12T01:31:02.947Z,90.80
2018-05-12T01:33:35.284Z,90.80
2018-05-12T01:36:07.605Z,90.80
2018-05-12T01:38:39.928Z,91.10
2018-05-12T01:41:12.265Z,91.00
2018-05-12T01:43:44.623Z,91.10
2018-05-12T01:46:17.802Z,91.00
2018-05-12T01:48:50.876Z,91.00
2018-05-12T01:51:24.236Z,91.60
2018-05-12T01:53:56.604Z,91.60
2018-05-12T01:56:28.965Z,91.80
2018-05-12T01:59:01.272Z,91.90
2018-05-12T02:01:33.605Z,92.00
2018-05-12T02:04:05.986Z,91.90
2018-05-12T02:06:38.291Z,91.50
2018-05-12T02:09:10.534Z,91.20
2018-05-12T02:11:42.879Z,91.00
2018-05-12T02:14:15.188Z,91.00
2018-05-12T02:16:47.506Z,91.00
2018-05-12T02:19:20.467Z,90.70
2018-05-12T02:21:52.852Z,90.70
2018-05-12T02:24:25.220Z,90.70
2018-05-12T02:26:57.601Z,90.70
2018-05-12T02:29:30.731Z,90.80
2018-05-12T02:32:03.089Z,90.80
2018-05-12T02:34:35.295Z,90.90
2018-05-12T02:37:07.631Z,91.00
2018-05-12T02:39:40.170Z,90.90
2018-05-12T02:42:12.466Z,90.90
2018-05-12T02:44:44.878Z,90.80
2018-05-12T02:47:17.273Z,90.80
2018-05-12T02:49:49.662Z,90.90
2018-05-12T02:52:22.043Z,90.80
2018-05-12T02:54:55.223Z,90.70
2018-05-12T02:57:27.520Z,90.70
2018-05-12T03:00:00.697Z,90.80
2018-05-12T03:02:33.058Z,90.80
2018-05-12T03:05:06.134Z,91.50
2018-05-12T03:07:38.497Z,91.50
2018-05-12T03:10:10.792Z,92.00
2018-05-12T03:12:43.851Z,92.20
2018-05-12T03:15:16.119Z,92.20
2018-05-12T03:17:48.365Z,92.30
2018-05-12T03:20:20.637Z,92.50
2018-05-12T03:22:52.920Z,92.60
2018-05-12T03:25:25.288Z,92.80
2018-05-12T03:27:58.316Z,93.30
2018-05-12T03:30:30.660Z,93.30
2018-05-12T03:33:03.216Z,93.40
2018-05-12T03:35:35.505Z,93.70
2018-05-12T03:38:07.847Z,93.60
2018-05-12T03:40:40.158Z,93.60
2018-05-12T03:43:12.483Z,93.50
2018-05-12T03:45:45.508Z,93.80
2018-05-12T03:48:17.864Z,93.80
2018-05-12T03:50:50.210Z,93.80
2018-05-12T03:53:23.401Z,94.30
2018-05-12T03:55:56.486Z,94.40
2018-05-12T03:58:29.672Z,94.50
2018-05-12T04:01:01.930Z,94.50
2018-05-12T04:03:34.316Z,94.80
2018-05-12T04:06:19.068Z,94.50
2018-05-12T04:09:21.117Z,94.30
2018-05-12T04:12:05.836Z,94.30
2018-05-12T04:14:38.207Z,94.10
2018-05-12T04:17:10.522Z,94.00
2018-05-12T04:19:42.915Z,93.90
2018-05-12T04:22:15.218Z,93.90
2018-05-12T04:24:47.518Z,93.40
2018-05-12T04:27:19.961Z,93.40
2018-05-12T04:29:52.284Z,93.20
2018-05-12T04:32:24.701Z,93.10
2018-05-12T04:34:57.085Z,93.00
2018-05-12T04:37:29.404Z,92.70
2018-05-12T04:40:01.717Z,92.70
2018-05-12T04:42:34.805Z,92.60
2018-05-12T04:45:07.963Z,92.50
2018-05-12T04:47:40.357Z,92.50
2018-05-12T04:50:13.668Z,92.50
2018-05-12T04:52:46.054Z,92.50
2018-05-12T04:55:18.415Z,91.90
2018-05-12T04:57:50.856Z,92.10
2018-05-12T05:00:23.225Z,92.30
2018-05-12T05:02:55.654Z,91.50
2018-05-12T05:05:28.785Z,90.90
2018-05-12T05:08:01.061Z,90.60
2018-05-12T05:10:33.492Z,90.40
2018-05-12T05:13:05.891Z,90.10
2018-05-12T05:15:38.261Z,89.90
2018-05-12T05:18:10.685Z,88.90
2018-05-12T05:20:43.847Z,88.30
2018-05-12T05:23:16.190Z,88.30
2018-05-12T05:25:48.642Z,87.30
2018-05-12T05:28:21.142Z,87.30
2018-05-12T05:30:54.372Z,86.90
2018-05-12T05:33:27.484Z,87.10
2018-05-12T05:35:59.964Z,87.00
2018-05-12T05:38:32.228Z,87.30
2018-05-12T05:41:05.478Z,86.80
2018-05-12T05:43:38.816Z,86.80
2018-05-12T05:46:11.882Z,87.40
2018-05-12T05:48:44.224Z,87.40
2018-05-12T05:51:16.634Z,87.10
2018-05-12T05:53:48.979Z,86.70
2018-05-12T05:56:22.365Z,86.50
2018-05-12T05:58:54.745Z,86.10
2018-05-12T06:01:27.041Z,86.20
2018-05-12T06:04:00.273Z,85.70
2018-05-12T06:06:32.661Z,85.10
2018-05-12T06:09:05.045Z,84.20
2018-05-12T06:11:37.385Z,83.10
2018-05-12T06:14:09.766Z,81.80
2018-05-12T06:16:42.099Z,80.20
2018-05-12T06:19:15.169Z,79.00
2018-05-12T06:21:47.775Z,78.90
2018-05-12T06:24:20.122Z,78.80
2018-05-12T06:26:52.443Z,77.70
2018-05-12T06:29:24.743Z,78.00
2018-05-12T06:31:57.095Z,77.10
2018-05-12T06:34:29.343Z,76.90
2018-05-12T06:37:02.438Z,74.70
2018-05-12T06:39:34.756Z,74.60
2018-05-12T06:42:07.066Z,71.80
2018-05-12T06:44:39.541Z,70.00
2018-05-12T06:47:12.708Z,66.90
2018-05-12T06:49:45.053Z,66.80
2018-05-12T06:52:17.416Z,65.20
2018-05-12T06:54:49.688Z,65.90
2018-05-12T06:57:21.964Z,66.30
2018-05-12T06:59:54.433Z,67.60
2018-05-12T07:02:26.759Z,69.30
2018-05-12T07:04:59.906Z,69.20
2018-05-12T07:07:32.650Z,69.10
2018-05-12T07:10:05.018Z,67.90
2018-05-12T07:12:37.528Z,67.60
2018-05-12T07:15:09.845Z,65.70
2018-05-12T07:17:42.167Z,66.60
2018-05-12T07:20:14.595Z,66.10
2018-05-12T07:22:47.637Z,63.90
2018-05-12T07:25:19.935Z,63.80
2018-05-12T07:27:52.300Z,64.40
2018-05-12T07:30:24.647Z,64.10
2018-05-12T07:32:57.058Z,63.80
2018-05-12T07:35:29.315Z,64.20
2018-05-12T07:38:01.666Z,64.40
2018-05-12T07:40:33.976Z,65.00
2018-05-12T07:43:06.399Z,62.40
2018-05-12T07:45:38.751Z,61.90
2018-05-12T07:48:11.027Z,61.10
2018-05-12T07:50:43.311Z,58.10
2018-05-12T07:53:16.290Z,56.20
2018-05-12T07:55:48.653Z,54.10
2018-05-12T07:58:20.918Z,55.30
2018-05-12T08:00:53.511Z,55.30
2018-05-12T08:03:25.858Z,56.50
2018-05-12T08:05:58.354Z,55.50
2018-05-12T08:08:31.481Z,52.90
2018-05-12T08:11:03.857Z,51.30
2018-05-12T08:13:36.117Z,49.10
2018-05-12T08:16:08.527Z,50.00
2018-05-12T08:18:40.852Z,52.90
2018-05-12T08:21:13.213Z,53.40
2018-05-12T08:23:45.613Z,50.10
2018-05-12T08:26:17.934Z,48.70
2018-05-12T08:28:50.439Z,47.70
2018-05-12T08:31:22.824Z,45.40
2018-05-12T08:33:55.223Z,45.70
2018-05-12T08:36:27.560Z,45.40
2018-05-12T08:38:59.880Z,43.10
2018-05-12T08:41:32.119Z,42.90
2018-05-12T08:44:04.683Z,42.30
2018-05-12T08:46:37.228Z,43.00
2018-05-12T08:49:09.654Z,42.40
2018-05-12T08:51:42.086Z,42.20
2018-05-12T08:54:14.439Z,41.50
2018-05-12T08:56:47.589Z,41.70
2018-05-12T08:59:20.012Z,41.70
2018-05-12T09:01:52.367Z,39.90
2018-05-12T09:04:25.419Z,42.20
2018-05-12T09:06:58.048Z,42.10
2018-05-12T09:09:30.424Z,42.10
2018-05-12T09:12:02.751Z,41.50
2018-05-12T09:14:35.126Z,42.30
2018-05-12T09:17:07.411Z,42.00
2018-05-12T09:19:40.547Z,41.30
2018-05-12T09:22:12.854Z,41.20
2018-05-12T09:24:45.246Z,40.30
2018-05-12T09:27:17.517Z,40.80
2018-05-12T09:29:49.919Z,39.60
2018-05-12T09:32:22.288Z,39.70
2018-05-12T09:34:54.699Z,37.90
2018-05-12T09:37:27.004Z,38.20
2018-05-12T09:39:59.480Z,40.00
2018-05-12T09:42:32.687Z,39.00
2018-05-12T09:45:05.270Z,38.00
2018-05-12T09:47:38.307Z,40.20
2018-05-12T09:50:10.770Z,40.00
2018-05-12T09:52:44.025Z,41.70
2018-05-12T09:55:16.673Z,41.70
2018-05-12T09:57:48.977Z,40.50
2018-05-12T10:00:22.284Z,36.00
2018-05-12T10:02:56.253Z,37.80
2018-05-12T10:05:28.833Z,37.70
2018-05-12T10:08:01.156Z,40.60
2018-05-12T10:10:33.528Z,37.60
2018-05-12T10:13:05.881Z,39.60
2018-05-12T10:15:39.090Z,39.10
2018-05-12T10:18:11.536Z,41.30
2018-05-12T10:20:43.918Z,40.90
2018-05-12T10:23:16.300Z,39.80
2018-05-12T10:25:48.638Z,35.90
2018-05-12T10:28:21.299Z,37.80
2018-05-12T10:30:53.653Z,36.80
2018-05-12T10:33:25.889Z,33.40
2018-05-12T10:35:58.407Z,31.80
2018-05-12T10:38:30.848Z,33.60
2018-05-12T10:41:03.263Z,33.20
2018-05-12T10:43:36.667Z,36.30
2018-05-12T10:46:09.764Z,33.80
2018-05-12T10:48:42.115Z,33.70
2018-05-12T10:51:14.409Z,35.10
2018-05-12T10:53:46.774Z,34.00
2018-05-12T10:56:19.222Z,34.90
2018-05-12T10:58:51.586Z,36.70
2018-05-12T11:01:23.945Z,38.50
2018-05-12T11:03:56.363Z,38.40
2018-05-12T11:06:28.683Z,38.90
2018-05-12T11:09:01.026Z,40.50
2018-05-12T11:11:33.413Z,41.90
2018-05-12T11:14:05.703Z,43.90
2018-05-12T11:16:38.035Z,43.20
2018-05-12T11:19:11.078Z,43.80
2018-05-12T11:21:43.533Z,44.10
2018-05-12T11:24:15.710Z,43.30
2018-05-12T11:26:48.074Z,44.70
2018-05-12T11:29:20.494Z,43.30
2018-05-12T11:31:52.834Z,44.70
2018-05-12T11:34:25.127Z,45.50
2018-05-12T11:36:57.731Z,44.50
2018-05-12T11:39:30.985Z,44.80
2018-05-12T11:42:04.966Z,45.40
2018-05-12T11:44:37.520Z,45.40
2018-05-12T11:47:10.603Z,45.00
2018-05-12T11:49:43.193Z,44.90
2018-05-12T11:52:16.543Z,43.70
2018-05-12T11:54:48.978Z,43.70
2018-05-12T11:57:21.320Z,44.70
2018-05-12T11:59:54.046Z,45.20
2018-05-12T12:02:26.398Z,44.60
2018-05-12T12:04:58.684Z,44.80
2018-05-12T12:07:31.061Z,42.50
2018-05-12T12:10:03.613Z,42.60
2018-05-12T12:12:35.966Z,42.70
2018-05-12T12:15:08.337Z,43.60
2018-05-12T12:17:41.458Z,45.00
2018-05-12T12:20:13.790Z,45.00
2018-05-12T12:22:46.128Z,44.60
2018-05-12T12:25:18.491Z,44.30
2018-05-12T12:27:50.786Z,41.30
2018-05-12T12:30:23.096Z,42.90
2018-05-12T12:32:55.533Z,44.40
2018-05-12T12:35:27.833Z,45.20
2018-05-12T12:38:00.104Z,45.10
2018-05-12T12:40:32.401Z,45.00
2018-05-12T12:43:04.844Z,44.60
2018-05-12T12:45:37.187Z,44.10
2018-05-12T12:48:09.543Z,45.10
2018-05-12T12:50:41.840Z,44.30
2018-05-12T12:53:14.790Z,44.00
2018-05-12T12:55:47.273Z,44.30
2018-05-12T12:58:19.713Z,44.60
2018-05-12T13:00:53.253Z,44.00
2018-05-12T13:03:25.549Z,43.90
2018-05-12T13:05:57.931Z,43.70
2018-05-12T13:08:30.350Z,43.10
2018-05-12T13:11:02.652Z,42.50
2018-05-12T13:13:35.136Z,42.40
2018-05-12T13:16:07.407Z,43.50
2018-05-12T13:18:39.727Z,42.30
2018-05-12T13:21:12.845Z,43.80
2018-05-12T13:23:45.154Z,43.80
2018-05-12T13:26:17.716Z,42.70
2018-05-12T13:28:50.340Z,43.70
2018-05-12T13:31:22.668Z,41.70
2018-05-12T13:33:54.959Z,43.00
2018-05-12T13:36:27.565Z,41.80
2018-05-12T13:39:00.626Z,43.30
2018-05-12T13:41:33.135Z,43.30
2018-05-12T13:44:06.478Z,45.00
2018-05-12T13:46:38.783Z,46.10
2018-05-12T13:49:11.936Z,46.00
2018-05-12T13:51:45.456Z,45.90
2018-05-12T13:54:17.769Z,46.30
2018-05-12T13:56:50.137Z,45.90
2018-05-12T13:59:23.421Z,46.40
2018-05-12T14:01:56.848Z,46.30
2018-05-12T14:04:29.243Z,46.20
2018-05-12T14:07:01.690Z,46.50
2018-05-12T14:09:34.091Z,46.70
2018-05-12T14:12:06.421Z,46.50
2018-05-12T14:14:38.785Z,47.80
2018-05-12T14:17:11.886Z,47.50
2018-05-12T14:19:44.361Z,47.40
2018-05-12T14:22:16.883Z,48.40
2018-05-12T14:24:49.503Z,49.00
2018-05-12T14:27:22.613Z,47.80
2018-05-12T14:29:54.906Z,47.80
2018-05-12T14:32:27.218Z,47.60
2018-05-12T14:35:00.389Z,48.20
2018-05-12T14:37:32.640Z,48.20
2018-05-12T14:40:05.160Z,48.90
2018-05-12T14:42:37.532Z,48.40
2018-05-12T14:45:09.900Z,48.80
2018-05-12T14:47:42.229Z,48.50
2018-05-12T14:50:14.692Z,48.00
2018-05-12T14:52:47.077Z,47.70
2018-05-12T14:55:19.452Z,47.10
2018-05-12T14:57:51.802Z,46.90
2018-05-12T15:00:24.152Z,47.40
2018-05-12T15:02:56.538Z,47.20
2018-05-12T15:05:29.118Z,47.90
2018-05-12T15:08:01.998Z,46.00
2018-05-12T15:10:34.473Z,46.30
2018-05-12T15:13:06.780Z,46.90
2018-05-12T15:15:39.194Z,46.40
2018-05-12T15:18:12.123Z,45.80
2018-05-12T15:20:45.280Z,45.60
2018-05-12T15:23:18.336Z,46.10
2018-05-12T15:25:50.658Z,46.10
2018-05-12T15:28:23.000Z,45.70
2018-05-12T15:30:55.394Z,46.10
2018-05-12T15:33:27.643Z,46.70
2018-05-12T15:35:59.977Z,46.50
2018-05-12T15:38:32.303Z,47.00
2018-05-12T15:41:05.376Z,46.80
2018-05-12T15:43:37.872Z,46.80
2018-05-12T15:46:10.185Z,46.80
2018-05-12T15:48:42.610Z,46.90
2018-05-12T15:51:14.920Z,47.20
2018-05-12T15:53:47.270Z,47.70
2018-05-12T15:56:19.653Z,47.00
2018-05-12T15:58:51.931Z,47.60
2018-05-12T16:01:24.568Z,47.90
2018-05-12T16:03:57.617Z,48.20
2018-05-12T16:06:29.975Z,48.10
2018-05-12T16:09:02.321Z,48.60
2018-05-12T16:11:35.162Z,47.10
2018-05-12T16:14:07.781Z,48.10
2018-05-12T16:16:40.067Z,47.60
2018-05-12T16:19:12.407Z,47.30
2018-05-12T16:21:45.824Z,47.90
2018-05-12T16:24:18.631Z,47.80
2018-05-12T16:26:51.008Z,47.90
2018-05-12T16:29:23.871Z,47.90
2018-05-12T16:31:56.440Z,48.20
2018-05-12T16:34:28.760Z,47.60
2018-05-12T16:37:01.075Z,47.70
2018-05-12T16:39:33.364Z,48.10
2018-05-12T16:42:05.694Z,48.30
2018-05-12T16:44:38.155Z,48.00
2018-05-12T16:47:10.452Z,48.60
2018-05-12T16:49:43.517Z,48.60
2018-05-12T16:52:15.850Z,49.20
2018-05-12T16:54:48.134Z,48.60
2018-05-12T16:57:20.496Z,48.90
2018-05-12T16:59:52.822Z,49.20
2018-05-12T17:02:26.017Z,49.90
2018-05-12T17:04:58.559Z,49.80
2018-05-12T17:07:30.964Z,50.20
2018-05-12T17:10:03.304Z,49.70
2018-05-12T17:12:35.622Z,50.60
2018-05-12T17:15:08.686Z,50.80
2018-05-12T17:17:41.858Z,51.00
2018-05-12T17:20:14.111Z,51.00
2018-05-12T17:22:46.453Z,51.30
2018-05-12T17:25:18.870Z,51.20
2018-05-12T17:27:51.264Z,50.90
2018-05-12T17:30:23.603Z,50.90
2018-05-12T17:32:55.878Z,51.20
2018-05-12T17:35:28.184Z,51.70
2018-05-12T17:38:00.568Z,51.70
2018-05-12T17:40:33.559Z,52.00
2018-05-12T17:43:06.763Z,52.30
2018-05-12T17:45:39.185Z,52.30
2018-05-12T17:48:11.597Z,52.80
2018-05-12T17:50:43.919Z,52.80
2018-05-12T17:53:16.200Z,53.10
2018-05-12T17:55:48.545Z,53.00
2018-05-12T17:58:21.018Z,53.40
2018-05-12T18:00:53.397Z,53.80
2018-05-12T18:03:25.758Z,53.70
2018-05-12T18:05:58.141Z,54.00
2018-05-12T18:08:30.464Z,54.00
2018-05-12T18:11:02.761Z,54.20
2018-05-12T18:13:35.205Z,54.70
2018-05-12T18:16:08.366Z,54.60
2018-05-12T18:18:40.689Z,54.50
2018-05-12T18:21:13.765Z,54.80
2018-05-12T18:23:46.830Z,55.30
2018-05-12T18:26:19.219Z,55.20
2018-05-12T18:28:51.580Z,55.40
2018-05-12T18:31:24.132Z,56.00
2018-05-12T18:33:56.625Z,56.40
2018-05-12T18:36:28.889Z,56.10
2018-05-12T18:39:01.230Z,56.30
2018-05-12T18:41:33.623Z,56.30
2018-05-12T18:44:05.949Z,56.50
2018-05-12T18:46:38.995Z,56.50
2018-05-12T18:49:11.603Z,56.50
2018-05-12T18:51:44.069Z,56.60
2018-05-12T18:54:17.457Z,57.80
2018-05-12T18:56:49.809Z,57.70
2018-05-12T18:59:22.896Z,58.20
2018-05-12T19:01:55.165Z,58.20
2018-05-12T19:04:27.501Z,58.70
2018-05-12T19:06:59.893Z,58.40
2018-05-12T19:09:32.339Z,58.70
2018-05-12T19:12:04.558Z,59.20
2018-05-12T19:14:36.887Z,59.60
2018-05-12T19:17:09.190Z,60.20
2018-05-12T19:19:41.866Z,60.50
2018-05-12T19:22:15.268Z,61.60
2018-05-12T19:24:47.521Z,61.00
2018-05-12T19:27:19.912Z,62.70
2018-05-12T19:29:52.245Z,63.50
2018-05-12T19:32:24.599Z,64.40
2018-05-12T19:34:56.966Z,64.60
2018-05-12T19:37:30.214Z,64.80
2018-05-12T19:40:02.581Z,66.30
2018-05-12T19:42:35.282Z,65.30
2018-05-12T19:45:07.914Z,63.50
2018-05-12T19:47:40.230Z,64.40
2018-05-12T19:50:12.861Z,63.60
2018-05-12T19:52:45.930Z,64.80
2018-05-12T19:55:18.540Z,64.80
2018-05-12T19:57:50.905Z,64.40
2018-05-12T20:00:23.246Z,65.30
2018-05-12T20:02:55.503Z,65.00
2018-05-12T20:05:28.939Z,64.60
2018-05-12T20:08:01.982Z,65.90
2018-05-12T20:10:34.280Z,65.80
2018-05-12T20:13:06.584Z,65.60
2018-05-12T20:15:39.049Z,65.80
2018-05-12T20:18:11.383Z,66.70
2018-05-12T20:20:43.597Z,67.80
2018-05-12T20:23:16.674Z,68.40
2018-05-12T20:25:49.780Z,67.40
2018-05-12T20:28:22.092Z,67.40
2018-05-12T20:30:54.527Z,68.30
2018-05-12T20:33:26.831Z,68.50
2018-05-12T20:35:59.231Z,69.20
2018-05-12T20:38:31.543Z,68.90
2018-05-12T20:41:03.988Z,69.90
2018-05-12T20:43:36.303Z,69.90
2018-05-12T20:46:08.497Z,70.90
2018-05-12T20:48:40.776Z,72.70
2018-05-12T20:51:13.416Z,73.30
2018-05-12T20:53:45.725Z,73.30
2018-05-12T20:56:18.080Z,74.80
2018-05-12T20:58:50.393Z,75.40
2018-05-12T21:01:23.637Z,76.90
2018-05-12T21:03:56.129Z,76.90
2018-05-12T21:06:28.908Z,76.20
2018-05-12T21:09:01.385Z,75.60
2018-05-12T21:11:33.767Z,74.80
2018-05-12T21:14:06.895Z,74.30
2018-05-12T21:16:39.296Z,74.30
2018-05-12T21:19:11.857Z,75.00
2018-05-12T21:21:44.385Z,73.70
2018-05-12T21:24:16.970Z,74.00
2018-05-12T21:26:49.548Z,73.40
2018-05-12T21:29:22.068Z,73.60
2018-05-12T21:31:54.623Z,73.40
2018-05-12T21:34:27.688Z,75.80
2018-05-12T21:37:00.347Z,75.80
2018-05-12T21:39:32.886Z,76.30
2018-05-12T21:42:05.157Z,77.20
2018-05-12T21:44:37.590Z,77.40
2018-05-12T21:47:10.103Z,78.50
2018-05-12T21:49:42.518Z,78.10
2018-05-12T21:52:15.165Z,78.20
2018-05-12T21:54:47.422Z,77.70
2018-05-12T21:57:19.944Z,76.60
2018-05-12T21:59:52.262Z,76.30
2018-05-12T22:02:26.365Z,75.50
2018-05-12T22:04:59.611Z,74.70
2018-05-12T22:07:32.057Z,74.70
2018-05-12T22:10:04.478Z,74.50
2018-05-12T22:12:36.861Z,74.50
2018-05-12T22:15:10.607Z,73.80
2018-05-12T22:17:42.952Z,73.70
2018-05-12T22:20:16.058Z,74.10
2018-05-12T22:22:48.522Z,74.70
2018-05-12T22:25:21.613Z,74.00
2018-05-12T22:27:53.914Z,74.00
2018-05-12T22:30:26.303Z,74.30
2018-05-12T22:32:59.282Z,73.90
2018-05-12T22:35:31.552Z,73.90
2018-05-12T22:38:04.673Z,74.00
2018-05-12T22:40:36.991Z,73.90
2018-05-12T22:43:09.392Z,73.80
2018-05-12T22:45:41.761Z,73.80
2018-05-12T22:48:14.164Z,73.80
2018-05-12T22:50:46.379Z,74.00
2018-05-12T22:53:18.712Z,73.80
2018-05-12T22:55:51.016Z,73.70
2018-05-12T22:58:24.113Z,73.80
2018-05-12T23:00:59.483Z,73.70
2018-05-12T23:03:32.817Z,74.40
2018-05-12T23:06:05.283Z,74.10
2018-05-12T23:08:37.628Z,74.50
2018-05-12T23:11:09.942Z,74.50
2018-05-12T23:13:43.779Z,74.80
2018-05-12T23:16:16.143Z,74.80
2018-05-12T23:18:48.946Z,74.60
2018-05-12T23:21:22.329Z,74.60
2018-05-12T23:23:54.871Z,74.90
2018-05-12T23:26:27.907Z,75.50
2018-05-12T23:29:00.540Z,75.50
2018-05-12T23:31:32.984Z,75.40
2018-05-12T23:34:05.311Z,75.20
2018-05-12T23:36:38.346Z,75.50
2018-05-12T23:39:12.757Z,75.70
2018-05-12T23:41:45.165Z,75.50
2018-05-12T23:44:17.459Z,75.70
2018-05-12T23:46:49.772Z,75.90
2018-05-12T23:49:25.066Z,76.30
2018-05-12T23:51:57.392Z,76.90
2018-05-12T23:54:30.110Z,77.40
2018-05-12T23:57:06.931Z,77.60
2018-05-12T23:59:39.373Z,77.60
